createdAt,value
2019-02-19T00:02:21.888Z,8.33
2019-02-19T00:04:50.348Z,8.27
2019-02-19T00:07:18.812Z,8.90
2019-02-19T00:09:47.277Z,8.27
2019-02-19T00:12:15.751Z,8.67
2019-02-19T00:14:44.214Z,8.70
2019-02-19T00:17:12.694Z,8.63
2019-02-19T00:19:41.167Z,8.47
2019-02-19T00:22:09.640Z,8.70
2019-02-19T00:24:38.185Z,8.27
2019-02-19T00:27:06.648Z,8.20
2019-02-19T00:29:35.113Z,8.20
2019-02-19T00:32:03.593Z,8.80
2019-02-19T00:34:32.061Z,8.50
2019-02-19T00:37:00.552Z,8.57
2019-02-19T00:39:29.011Z,8.30
2019-02-19T00:41:57.483Z,8.13
2019-02-19T00:44:26.038Z,8.97
2019-02-19T00:46:54.513Z,9.07
2019-02-19T00:49:22.991Z,9.10
2019-02-19T00:51:51.470Z,8.77
2019-02-19T00:54:19.926Z,8.53
2019-02-19T00:56:48.409Z,9.00
2019-02-19T00:59:16.882Z,9.60
2019-02-19T01:01:45.357Z,8.70
2019-02-19T01:04:13.871Z,9.37
2019-02-19T01:06:42.422Z,9.40
2019-02-19T01:09:10.962Z,9.30
2019-02-19T01:11:39.434Z,9.30
2019-02-19T01:14:07.899Z,9.37
2019-02-19T01:16:36.386Z,9.83
2019-02-19T01:19:04.845Z,9.13
2019-02-19T01:21:33.303Z,9.70
2019-02-19T01:24:01.780Z,9.80
2019-02-19T01:26:30.227Z,9.27
2019-02-19T01:28:58.705Z,9.03
2019-02-19T01:31:27.182Z,9.77
2019-02-19T01:33:55.734Z,10.13
2019-02-19T01:36:24.254Z,9.77
2019-02-19T01:38:52.724Z,11.10
2019-02-19T01:41:21.194Z,9.70
2019-02-19T01:43:49.671Z,9.83
2019-02-19T01:46:18.124Z,10.17
2019-02-19T01:48:46.605Z,10.13
2019-02-19T01:51:15.074Z,10.27
2019-02-19T01:53:43.541Z,9.87
2019-02-19T01:56:12.004Z,10.00
2019-02-19T01:58:40.490Z,10.07
2019-02-19T02:01:08.960Z,10.47
2019-02-19T02:03:37.440Z,10.00
2019-02-19T02:06:05.955Z,10.77
2019-02-19T02:08:34.450Z,10.77
2019-02-19T02:11:02.904Z,10.27
2019-02-19T02:13:31.383Z,10.40
2019-02-19T02:15:59.849Z,11.07
2019-02-19T02:18:28.345Z,10.20
2019-02-19T02:20:56.798Z,10.20
2019-02-19T02:23:25.280Z,10.37
2019-02-19T02:25:53.916Z,10.03
2019-02-19T02:28:22.395Z,10.70
2019-02-19T02:30:50.858Z,10.00
2019-02-19T02:33:19.335Z,10.00
2019-02-19T02:35:47.791Z,10.33
2019-02-19T02:38:16.273Z,10.67
2019-02-19T02:40:44.739Z,10.37
2019-02-19T02:43:13.219Z,10.00
2019-02-19T02:45:41.695Z,11.10
2019-02-19T02:48:10.175Z,10.83
2019-02-19T02:50:38.639Z,10.40
2019-02-19T02:53:07.120Z,10.23
2019-02-19T02:55:35.583Z,10.70
2019-02-19T02:58:04.063Z,10.03
2019-02-19T03:00:32.612Z,10.93
2019-02-19T03:03:01.084Z,11.33
2019-02-19T03:05:29.598Z,10.20
2019-02-19T03:07:59.747Z,10.07
2019-02-19T03:10:28.216Z,10.60
2019-02-19T03:12:56.698Z,10.63
2019-02-19T03:15:25.169Z,10.63
2019-02-19T03:17:53.653Z,10.00
2019-02-19T03:20:22.096Z,9.87
2019-02-19T03:22:50.576Z,10.53
2019-02-19T03:25:19.047Z,10.73
2019-02-19T03:27:47.532Z,10.10
2019-02-19T03:30:16.002Z,12.20
2019-02-19T03:32:44.483Z,11.63
2019-02-19T03:35:12.955Z,12.47
2019-02-19T03:37:41.431Z,14.70
2019-02-19T03:40:09.965Z,14.27
2019-02-19T03:42:38.445Z,11.60
2019-02-19T03:45:09.142Z,11.07
2019-02-19T03:47:37.618Z,10.97
2019-02-19T03:50:06.516Z,10.90
2019-02-19T03:52:35.004Z,10.77
2019-02-19T03:55:03.720Z,10.70
2019-02-19T03:57:32.198Z,10.73
2019-02-19T04:00:00.731Z,10.73
2019-02-19T04:02:29.200Z,11.00
2019-02-19T04:04:57.822Z,9.57
2019-02-19T04:07:26.397Z,11.03
2019-02-19T04:09:54.891Z,10.80
2019-02-19T04:12:23.408Z,11.00
2019-02-19T04:14:51.895Z,10.33
2019-02-19T04:17:20.376Z,11.30
2019-02-19T04:19:48.847Z,10.70
2019-02-19T04:22:17.315Z,9.90
2019-02-19T04:24:45.849Z,11.27
2019-02-19T04:27:14.314Z,11.23
2019-02-19T04:29:42.807Z,11.13
2019-02-19T04:32:11.404Z,11.40
2019-02-19T04:34:39.918Z,11.80
2019-02-19T04:37:08.378Z,10.63
2019-02-19T04:39:36.938Z,11.10
2019-02-19T04:42:05.400Z,11.17
2019-02-19T04:44:33.873Z,12.27
2019-02-19T04:47:02.325Z,11.53
2019-02-19T04:49:30.815Z,11.10
2019-02-19T04:51:59.295Z,10.57
2019-02-19T04:54:27.777Z,10.57
2019-02-19T04:56:56.245Z,11.67
2019-02-19T04:59:24.733Z,11.77
2019-02-19T05:01:53.195Z,11.03
2019-02-19T05:04:21.685Z,12.30
2019-02-19T05:06:50.172Z,12.73
2019-02-19T05:09:18.688Z,10.90
2019-02-19T05:11:47.154Z,10.83
2019-02-19T05:14:15.627Z,11.43
2019-02-19T05:16:44.097Z,11.43
2019-02-19T05:19:12.585Z,10.73
2019-02-19T05:21:41.041Z,11.43
2019-02-19T05:24:09.522Z,11.07
2019-02-19T05:26:38.007Z,11.53
2019-02-19T05:29:06.481Z,12.00
2019-02-19T05:31:34.943Z,11.20
2019-02-19T05:34:03.424Z,10.53
2019-02-19T05:36:31.876Z,11.40
2019-02-19T05:39:00.366Z,11.53
2019-02-19T05:41:28.835Z,11.33
2019-02-19T05:43:57.327Z,11.50
2019-02-19T05:46:25.776Z,11.07
2019-02-19T05:48:54.252Z,11.87
2019-02-19T05:51:22.732Z,11.17
2019-02-19T05:53:51.211Z,12.03
2019-02-19T05:56:19.660Z,11.90
2019-02-19T05:58:48.154Z,11.13
2019-02-19T06:01:16.609Z,10.10
2019-02-19T06:03:45.095Z,11.03
2019-02-19T06:06:13.556Z,11.10
2019-02-19T06:08:42.030Z,10.13
2019-02-19T06:11:10.502Z,11.23
2019-02-19T06:13:38.972Z,10.93
2019-02-19T06:16:07.441Z,10.00
2019-02-19T06:18:35.918Z,11.33
2019-02-19T06:21:04.386Z,11.63
2019-02-19T06:23:32.852Z,10.30
2019-02-19T06:26:01.322Z,10.47
2019-02-19T06:28:29.791Z,10.57
2019-02-19T06:30:58.253Z,10.73
2019-02-19T06:33:26.732Z,10.97
2019-02-19T06:35:55.192Z,10.03
2019-02-19T06:38:23.680Z,9.73
2019-02-19T06:40:52.196Z,9.67
2019-02-19T06:43:20.721Z,11.07
2019-02-19T06:45:49.197Z,9.60
2019-02-19T06:48:17.669Z,9.97
2019-02-19T06:50:46.139Z,9.63
2019-02-19T06:53:14.613Z,10.40
2019-02-19T06:55:44.872Z,9.93
2019-02-19T06:58:13.283Z,9.67
2019-02-19T07:00:41.764Z,8.90
2019-02-19T07:03:17.331Z,9.27
2019-02-19T07:05:45.801Z,9.03
2019-02-19T07:08:14.333Z,9.20
2019-02-19T07:10:42.821Z,9.30
2019-02-19T07:13:11.295Z,9.07
2019-02-19T07:15:39.760Z,9.27
2019-02-19T07:18:08.231Z,9.30
2019-02-19T07:20:36.707Z,9.80
2019-02-19T07:23:05.200Z,8.93
2019-02-19T07:25:33.668Z,10.40
2019-02-19T07:28:02.136Z,9.43
2019-02-19T07:30:30.623Z,9.53
2019-02-19T07:32:59.101Z,9.17
2019-02-19T07:35:27.665Z,10.83
2019-02-19T07:37:56.124Z,9.77
2019-02-19T07:40:24.601Z,9.53
2019-02-19T07:42:53.070Z,9.33
2019-02-19T07:45:22.142Z,10.13
2019-02-19T07:47:50.684Z,9.77
2019-02-19T07:50:19.192Z,9.57
2019-02-19T07:52:47.673Z,10.63
2019-02-19T07:55:16.140Z,8.93
2019-02-19T07:57:44.682Z,9.60
2019-02-19T08:00:13.987Z,9.27
2019-02-19T08:02:42.445Z,8.83
2019-02-19T08:05:10.927Z,9.05
2019-02-19T08:07:39.977Z,9.98
2019-02-19T08:10:12.223Z,9.90
2019-02-19T08:12:40.716Z,9.63
2019-02-19T08:15:11.770Z,9.30
2019-02-19T08:17:40.901Z,8.63
2019-02-19T08:20:15.848Z,8.88
2019-02-19T08:22:41.239Z,9.93
2019-02-19T08:25:09.893Z,8.80
2019-02-19T08:27:38.933Z,8.83
2019-02-19T08:30:11.059Z,8.95
2019-02-19T08:32:40.352Z,9.40
2019-02-19T08:35:09.423Z,9.58
2019-02-19T08:37:38.469Z,8.85
2019-02-19T08:40:09.629Z,8.73
2019-02-19T08:42:38.699Z,8.60
2019-02-19T08:45:09.518Z,8.88
2019-02-19T08:47:42.510Z,8.73
2019-02-19T08:50:09.739Z,9.03
2019-02-19T08:52:38.787Z,8.55
2019-02-19T08:55:07.849Z,8.60
2019-02-19T08:57:36.892Z,8.73
2019-02-19T09:00:09.087Z,8.55
2019-02-19T09:02:38.139Z,9.30
2019-02-19T09:05:07.853Z,9.25
2019-02-19T09:07:37.000Z,9.23
2019-02-19T09:10:11.313Z,8.43
2019-02-19T09:12:40.382Z,9.55
2019-02-19T09:15:12.991Z,9.30
2019-02-19T09:17:42.036Z,7.95
2019-02-19T09:20:11.237Z,8.40
2019-02-19T09:22:40.293Z,7.90
2019-02-19T09:25:09.403Z,7.08
2019-02-19T09:27:38.470Z,7.90
2019-02-19T09:30:11.059Z,7.55
2019-02-19T09:32:40.112Z,8.70
2019-02-19T09:35:09.738Z,7.65
2019-02-19T09:37:38.864Z,6.78
2019-02-19T09:40:09.942Z,8.13
2019-02-19T09:42:39.003Z,7.42
2019-02-19T09:45:09.789Z,7.78
2019-02-19T09:47:38.852Z,6.97
2019-02-19T09:50:09.947Z,7.00
2019-02-19T09:52:39.010Z,7.00
2019-02-19T09:55:08.419Z,7.37
2019-02-19T09:57:37.480Z,7.67
2019-02-19T10:00:09.896Z,7.67
2019-02-19T10:02:39.002Z,6.70
2019-02-19T10:05:10.088Z,7.28
2019-02-19T10:07:39.380Z,7.10
2019-02-19T10:10:14.181Z,7.45
2019-02-19T10:12:43.224Z,7.35
2019-02-19T10:15:13.400Z,7.03
2019-02-19T10:17:42.465Z,7.28
2019-02-19T10:20:13.365Z,7.10
2019-02-19T10:22:42.478Z,7.17
2019-02-19T10:25:13.264Z,6.78
2019-02-19T10:27:42.347Z,7.35
2019-02-19T10:30:19.697Z,6.75
2019-02-19T10:32:48.841Z,7.08
2019-02-19T10:35:17.889Z,7.10
2019-02-19T10:37:46.953Z,7.47
2019-02-19T10:40:18.011Z,7.45
2019-02-19T10:42:47.327Z,7.42
2019-02-19T10:45:27.159Z,8.10
2019-02-19T10:47:56.225Z,7.67
2019-02-19T10:50:25.313Z,7.58
2019-02-19T10:52:54.385Z,8.25
2019-02-19T10:55:23.445Z,9.28
2019-02-19T10:57:52.513Z,7.67
2019-02-19T11:00:23.230Z,7.72
2019-02-19T11:02:52.529Z,8.30
2019-02-19T11:05:21.578Z,8.38
2019-02-19T11:07:50.638Z,7.53
2019-02-19T11:10:19.793Z,8.30
2019-02-19T11:12:48.851Z,8.90
2019-02-19T11:15:18.045Z,8.58
2019-02-19T11:17:47.119Z,8.13
2019-02-19T11:20:19.314Z,8.08
2019-02-19T11:22:48.457Z,8.90
2019-02-19T11:25:17.575Z,8.65
2019-02-19T11:27:46.731Z,8.93
2019-02-19T11:30:17.373Z,9.30
2019-02-19T11:32:46.435Z,9.18
2019-02-19T11:35:15.601Z,8.50
2019-02-19T11:37:44.684Z,8.95
2019-02-19T11:40:14.478Z,8.78
2019-02-19T11:42:43.526Z,9.63
2019-02-19T11:45:14.910Z,9.78
2019-02-19T11:47:43.966Z,10.40
2019-02-19T11:50:13.698Z,9.38
2019-02-19T11:52:42.782Z,9.73
2019-02-19T11:55:14.542Z,9.60
2019-02-19T11:57:43.602Z,8.63
2019-02-19T12:00:16.246Z,9.15
2019-02-19T12:02:45.305Z,8.90
2019-02-19T12:05:14.360Z,9.00
2019-02-19T12:07:43.450Z,9.08
2019-02-19T12:10:12.586Z,8.93
2019-02-19T12:12:41.656Z,8.55
2019-02-19T12:15:12.640Z,8.93
2019-02-19T12:17:41.810Z,8.45
2019-02-19T12:20:12.842Z,9.35
2019-02-19T12:22:42.056Z,9.08
2019-02-19T12:25:11.256Z,9.20
2019-02-19T12:27:40.312Z,9.08
2019-02-19T12:30:15.056Z,9.53
2019-02-19T12:32:44.224Z,9.28
2019-02-19T12:35:13.287Z,9.15
2019-02-19T12:37:42.419Z,9.15
2019-02-19T12:40:12.515Z,8.80
2019-02-19T12:42:41.608Z,9.53
2019-02-19T12:45:12.311Z,9.38
2019-02-19T12:47:41.352Z,9.90
2019-02-19T12:50:18.176Z,9.90
2019-02-19T12:52:47.300Z,9.98
2019-02-19T12:55:16.441Z,9.60
2019-02-19T12:57:45.542Z,9.33
2019-02-19T13:00:16.763Z,9.00
2019-02-19T13:02:45.901Z,9.45
2019-02-19T13:05:15.899Z,9.33
2019-02-19T13:07:46.901Z,9.03
2019-02-19T13:10:15.759Z,9.38
2019-02-19T13:12:44.823Z,8.95
2019-02-19T13:15:18.458Z,9.23
2019-02-19T13:17:47.625Z,9.05
2019-02-19T13:20:16.675Z,8.53
2019-02-19T13:22:45.732Z,8.95
2019-02-19T13:25:14.830Z,8.30
2019-02-19T13:27:43.936Z,8.75
2019-02-19T13:30:16.131Z,8.43
2019-02-19T13:32:45.239Z,8.53
2019-02-19T13:35:14.615Z,8.28
2019-02-19T13:37:43.671Z,8.63
2019-02-19T13:40:15.471Z,9.05
2019-02-19T13:42:44.530Z,8.25
2019-02-19T13:45:15.021Z,8.50
2019-02-19T13:47:44.123Z,8.75
2019-02-19T13:50:21.800Z,8.35
2019-02-19T13:52:52.570Z,8.75
2019-02-19T13:55:23.270Z,8.18
2019-02-19T13:57:52.428Z,8.75
2019-02-19T14:00:23.204Z,9.28
2019-02-19T14:02:53.095Z,8.10
2019-02-19T14:05:22.336Z,7.90
2019-02-19T14:07:51.521Z,8.20
2019-02-19T14:10:20.638Z,7.92
2019-02-19T14:12:49.686Z,8.60
2019-02-19T14:15:32.096Z,8.78
2019-02-19T14:18:02.134Z,9.08
2019-02-19T14:20:41.561Z,10.85
2019-02-19T14:23:18.069Z,8.45
2019-02-19T14:25:57.862Z,8.10
2019-02-19T14:28:44.672Z,8.55
2019-02-19T14:31:33.452Z,8.35
2019-02-19T14:34:20.401Z,7.45
2019-02-19T14:37:06.220Z,7.90
2019-02-19T14:39:36.923Z,8.08
2019-02-19T14:42:16.550Z,8.58
2019-02-19T14:44:50.245Z,7.42
2019-02-19T14:47:35.959Z,7.67
2019-02-19T14:50:13.147Z,8.43
2019-02-19T14:53:00.103Z,7.72
2019-02-19T14:55:45.989Z,8.33
2019-02-19T14:58:22.520Z,9.13
2019-02-19T15:00:56.003Z,8.73
2019-02-19T15:03:43.403Z,9.60
2019-02-19T15:06:16.826Z,8.48
2019-02-19T15:08:50.312Z,9.08
2019-02-19T15:11:24.082Z,9.25
2019-02-19T15:14:03.631Z,9.28
2019-02-19T15:16:36.879Z,8.95
2019-02-19T15:19:07.573Z,8.73
2019-02-19T15:21:54.763Z,9.88
2019-02-19T15:24:41.903Z,8.93
2019-02-19T15:27:12.599Z,9.03
2019-02-19T15:29:52.196Z,9.88
2019-02-19T15:32:34.795Z,9.33
2019-02-19T15:35:06.351Z,9.48
2019-02-19T15:37:37.076Z,8.88
2019-02-19T15:40:12.266Z,9.25
2019-02-19T15:42:59.454Z,9.43
2019-02-19T15:45:36.190Z,8.70
2019-02-19T15:48:09.793Z,9.30
2019-02-19T15:50:49.028Z,9.13
2019-02-19T15:53:22.470Z,9.53
2019-02-19T15:55:56.208Z,9.60
2019-02-19T15:58:42.008Z,8.70
2019-02-19T16:01:15.406Z,9.70
2019-02-19T16:04:02.657Z,10.55
2019-02-19T16:06:39.514Z,9.80
2019-02-19T16:09:11.133Z,9.38
2019-02-19T16:11:47.512Z,9.35
2019-02-19T16:14:18.232Z,9.28
2019-02-19T16:16:48.927Z,9.48
2019-02-19T16:19:19.620Z,9.98
2019-02-19T16:21:53.530Z,9.20
2019-02-19T16:24:30.478Z,10.38
2019-02-19T16:27:17.840Z,9.93
2019-02-19T16:29:57.675Z,9.93
2019-02-19T16:32:44.615Z,9.85
2019-02-19T16:35:33.197Z,10.03
2019-02-19T16:38:03.979Z,9.90
2019-02-19T16:40:51.512Z,10.63
2019-02-19T16:43:25.213Z,10.63
2019-02-19T16:45:58.884Z,9.68
2019-02-19T16:48:38.442Z,10.38
2019-02-19T16:51:11.831Z,10.40
2019-02-19T16:53:51.604Z,10.15
2019-02-19T16:56:38.823Z,9.98
2019-02-19T16:59:09.587Z,9.80
2019-02-19T17:01:40.275Z,9.53
2019-02-19T17:04:14.008Z,9.60
2019-02-19T17:06:47.524Z,9.40
2019-02-19T17:09:24.225Z,8.85
2019-02-19T17:12:00.681Z,9.25
2019-02-19T17:14:49.369Z,9.50
2019-02-19T17:17:28.967Z,9.38
2019-02-19T17:19:59.670Z,9.28
2019-02-19T17:22:42.616Z,9.40
2019-02-19T17:25:13.430Z,9.40
2019-02-19T17:27:50.018Z,9.30
2019-02-19T17:30:26.675Z,10.75
2019-02-19T17:33:03.173Z,9.33
2019-02-19T17:35:52.459Z,9.58
2019-02-19T17:38:28.626Z,9.48
2019-02-19T17:40:59.343Z,9.75
2019-02-19T17:43:32.776Z,9.68
2019-02-19T17:46:03.517Z,9.45
2019-02-19T17:48:52.413Z,10.15
2019-02-19T17:51:32.237Z,9.43
2019-02-19T17:54:02.951Z,9.10
2019-02-19T17:56:42.666Z,10.05
2019-02-19T17:59:19.625Z,9.83
2019-02-19T18:01:50.318Z,9.68
2019-02-19T18:04:21.008Z,9.25
2019-02-19T18:07:06.796Z,9.20
2019-02-19T18:09:40.702Z,9.93
2019-02-19T18:12:26.376Z,9.50
2019-02-19T18:14:59.401Z,9.98
2019-02-19T18:17:38.565Z,9.55
2019-02-19T18:20:08.398Z,9.58
2019-02-19T18:22:37.523Z,10.13
2019-02-19T18:25:07.218Z,11.10
2019-02-19T18:27:36.354Z,11.10
2019-02-19T18:30:08.079Z,10.20
2019-02-19T18:32:37.122Z,9.83
2019-02-19T18:35:06.467Z,10.28
2019-02-19T18:37:35.509Z,9.80
2019-02-19T18:40:05.326Z,10.15
2019-02-19T18:42:34.372Z,9.40
2019-02-19T18:45:04.229Z,10.15
2019-02-19T18:47:33.292Z,9.90
2019-02-19T18:50:02.360Z,10.00
2019-02-19T18:52:31.416Z,10.50
2019-02-19T18:55:00.571Z,9.85
2019-02-19T18:57:29.633Z,10.18
2019-02-19T18:59:58.804Z,11.05
2019-02-19T19:02:27.865Z,10.53
2019-02-19T19:04:56.928Z,10.85
2019-02-19T19:07:26.017Z,10.63
2019-02-19T19:09:55.096Z,10.18
2019-02-19T19:12:24.194Z,10.13
2019-02-19T19:14:53.259Z,10.70
2019-02-19T19:17:22.329Z,10.30
2019-02-19T19:19:51.404Z,10.10
2019-02-19T19:22:20.524Z,10.10
2019-02-19T19:24:49.039Z,10.80
2019-02-19T19:27:18.101Z,9.70
2019-02-19T19:29:46.636Z,10.13
2019-02-19T19:32:15.122Z,10.38
2019-02-19T19:34:44.182Z,10.72
2019-02-19T19:37:13.254Z,10.90
2019-02-19T19:39:41.740Z,10.38
2019-02-19T19:42:10.220Z,10.45
2019-02-19T19:44:39.280Z,10.72
2019-02-19T19:47:07.767Z,11.05
2019-02-19T19:49:36.229Z,10.63
2019-02-19T19:52:05.307Z,11.12
2019-02-19T19:54:33.779Z,10.58
2019-02-19T19:57:04.386Z,10.25
2019-02-19T19:59:33.702Z,11.10
2019-02-19T20:02:02.194Z,11.10
2019-02-19T20:04:31.240Z,10.95
2019-02-19T20:06:59.723Z,10.03
2019-02-19T20:09:28.786Z,10.25
2019-02-19T20:11:57.865Z,10.68
2019-02-19T20:14:26.399Z,10.37
2019-02-19T20:16:55.534Z,10.68
2019-02-19T20:19:24.644Z,10.25
2019-02-19T20:21:53.746Z,10.32
2019-02-19T20:24:22.230Z,10.40
2019-02-19T20:26:51.272Z,10.00
2019-02-19T20:29:19.745Z,10.40
2019-02-19T20:31:48.220Z,10.00
2019-02-19T20:34:17.282Z,10.93
2019-02-19T20:36:45.766Z,11.23
2019-02-19T20:39:14.255Z,10.53
2019-02-19T20:41:43.313Z,10.40
2019-02-19T20:44:11.821Z,10.50
2019-02-19T20:46:40.301Z,11.57
2019-02-19T20:49:08.785Z,10.97
2019-02-19T20:51:37.843Z,11.08
2019-02-19T20:54:06.907Z,11.00
2019-02-19T20:56:35.367Z,10.93
2019-02-19T20:59:04.459Z,11.28
2019-02-19T21:01:32.989Z,10.50
2019-02-19T21:04:01.485Z,10.03
2019-02-19T21:06:29.949Z,10.70
2019-02-19T21:08:59.019Z,9.90
2019-02-19T21:11:27.762Z,10.17
2019-02-19T21:13:56.322Z,10.57
2019-02-19T21:16:25.459Z,10.50
2019-02-19T21:18:53.944Z,10.28
2019-02-19T21:21:22.405Z,10.67
2019-02-19T21:23:50.903Z,10.20
2019-02-19T21:26:19.360Z,10.73
2019-02-19T21:28:47.875Z,10.87
2019-02-19T21:31:16.341Z,10.93
2019-02-19T21:33:45.427Z,10.50
2019-02-19T21:36:13.891Z,10.00
2019-02-19T21:38:42.365Z,10.70
2019-02-19T21:41:10.859Z,10.53
2019-02-19T21:43:39.337Z,11.00
2019-02-19T21:46:07.825Z,11.53
2019-02-19T21:48:36.301Z,11.43
2019-02-19T21:51:04.925Z,11.17
2019-02-19T21:53:33.411Z,11.33
2019-02-19T21:56:01.886Z,11.97
2019-02-19T21:58:30.348Z,11.60
2019-02-19T22:00:58.843Z,12.17
2019-02-19T22:03:27.304Z,11.53
2019-02-19T22:05:56.372Z,11.97
2019-02-19T22:08:24.858Z,11.20
2019-02-19T22:10:53.941Z,11.37
2019-02-19T22:13:24.121Z,11.88
2019-02-19T22:15:52.610Z,11.10
2019-02-19T22:18:21.096Z,11.13
2019-02-19T22:20:51.245Z,11.57
2019-02-19T22:23:19.719Z,11.90
2019-02-19T22:25:48.202Z,11.93
2019-02-19T22:28:16.686Z,12.47
2019-02-19T22:30:46.038Z,11.90
2019-02-19T22:33:14.565Z,11.63
2019-02-19T22:35:43.118Z,11.47
2019-02-19T22:38:11.577Z,11.40
2019-02-19T22:40:40.068Z,11.67
2019-02-19T22:43:08.534Z,11.63
2019-02-19T22:45:37.081Z,11.73
2019-02-19T22:48:05.555Z,11.40
2019-02-19T22:50:34.037Z,12.10
2019-02-19T22:53:04.157Z,13.03
2019-02-19T22:55:34.284Z,12.43
2019-02-19T22:58:02.752Z,11.57
2019-02-19T23:00:49.888Z,12.27
2019-02-19T23:03:22.877Z,11.73
2019-02-19T23:05:51.353Z,11.80
2019-02-19T23:08:19.827Z,12.43
2019-02-19T23:10:48.302Z,11.20
2019-02-19T23:13:16.855Z,12.30
2019-02-19T23:15:45.374Z,11.00
2019-02-19T23:18:13.909Z,11.83
2019-02-19T23:20:42.379Z,12.07
2019-02-19T23:23:10.865Z,11.20
2019-02-19T23:25:39.337Z,11.63
2019-02-19T23:28:07.831Z,11.70
2019-02-19T23:30:36.304Z,11.60
2019-02-19T23:33:04.810Z,12.00
2019-02-19T23:35:34.910Z,12.20
2019-02-19T23:38:03.463Z,12.17
2019-02-19T23:40:31.939Z,12.20
2019-02-19T23:43:00.425Z,11.50
2019-02-19T23:45:28.898Z,12.83
2019-02-19T23:47:57.389Z,12.17
2019-02-19T23:50:25.869Z,12.53
2019-02-19T23:52:54.353Z,12.90
2019-02-19T23:55:23.490Z,12.30
2019-02-19T23:57:51.988Z,12.40
